Airfield :
LOGIN :

Register | Disclaimer

   EN    FR    IT 

 










Legend :    VFR   Marginal VFR   IFR   Intensive IFR   Very Intensive IFR
Visi :
Ceiling :
>= 8 km
>= 3000ft
5 to 8 km
1000 to 3000 ft
1500m to 5 km
500 to 1000 ft
800 to 1500m
200 to 500 ft
< 800m
< 200 ft
Symbols :   Thunderstorms  Fog  Heavy snow  Heavy precipitations  Wind > 20 kt
SIGMETs :     Misc.  Thunderstorms  Icing  Turbulence  Mountain Waves  Volcanic Ashes







- Airport Elevation : 468 ft
- IATA code : GRO


LEGE - Girona Costa Brava

CURRENT METAR :
  • 201500Z 18011KT 150V220 9999 FEW030 28/16 Q1020

EXPIRED METARs :
  • 201430Z 20009KT 160V250 9999 FEW030 28/15 Q1020
  • 201400Z 19010KT 150V230 9999 FEW030 SCT055 28/15 Q1020
  • 201330Z 19010KT 150V240 9999 FEW030 SCT045 28/15 Q1020
  • 201300Z 20012KT 160V260 9999 FEW030 SCT045 29/15 Q1020
  • 201230Z 12008KT 070V190 9999 FEW030 SCT045 28/14 Q1020

TAF TAF LEGE
Valid from the 20 at 12:00 until the 21 at 12:00 UTC


201100Z 2012/2112 VRB04KT 9999 FEW020 BKN040 TX30/2014Z TN18/2106Z
TEMPO 2012/2014 BKN014
BECMG 2012/2014 18010KT
BECMG 2019/2021 VRB03KT
No reported NOTAMs for that airfield.



MET'MAP, your aeronautical weather chart ! - Copyright ORBIFLY December 2007 - Disclaimer

ORBIFLY MET'MAP TEAM :

Programming & Development : Alexandra Zaïnal
Concept & Development : Baudouin d'Aumeries
Co-Development & Prog : Marc-Olivier Méhu
Technical & hardware support : Manuel Goepfert

Contact : metmap@orbifly.com




SOURCES & CREDITS :

   NOAA